sensor_id;sensor_type;location;lat;lon;timestamp;P1;durP1;ratioP1;P2;durP2;ratioP2
7821;SDS011;3956;50.558;9.678;2022-12-26T00:01:47;5.17;;;4.23;;
7821;SDS011;3956;50.558;9.678;2022-12-26T00:04:20;5.10;;;4.17;;
7821;SDS011;3956;50.558;9.678;2022-12-26T00:07:09;4.90;;;4.10;;
7821;SDS011;3956;50.558;9.678;2022-12-26T00:09:40;8.17;;;4.10;;
7821;SDS011;3956;50.558;9.678;2022-12-26T00:12:08;5.30;;;3.90;;
7821;SDS011;3956;50.558;9.678;2022-12-26T00:14:37;4.20;;;3.70;;
7821;SDS011;3956;50.558;9.678;2022-12-26T00:17:06;5.33;;;4.23;;
7821;SDS011;3956;50.558;9.678;2022-12-26T00:19:35;6.93;;;4.00;;
7821;SDS011;3956;50.558;9.678;2022-12-26T00:22:04;4.93;;;3.97;;
7821;SDS011;3956;50.558;9.678;2022-12-26T00:24:35;6.17;;;3.67;;
7821;SDS011;3956;50.558;9.678;2022-12-26T00:27:05;4.03;;;3.63;;
7821;SDS011;3956;50.558;9.678;2022-12-26T00:29:33;6.07;;;4.53;;
7821;SDS011;3956;50.558;9.678;2022-12-26T00:32:02;5.70;;;4.03;;
7821;SDS011;3956;50.558;9.678;2022-12-26T00:34:31;6.47;;;4.27;;
7821;SDS011;3956;50.558;9.678;2022-12-26T00:36:59;5.03;;;3.83;;
7821;SDS011;3956;50.558;9.678;2022-12-26T00:39:28;5.97;;;3.80;;
7821;SDS011;3956;50.558;9.678;2022-12-26T00:41:57;4.90;;;3.70;;
7821;SDS011;3956;50.558;9.678;2022-12-26T00:44:27;6.60;;;4.00;;
7821;SDS011;3956;50.558;9.678;2022-12-26T00:46:56;5.80;;;3.67;;
7821;SDS011;3956;50.558;9.678;2022-12-26T00:49:24;4.50;;;4.00;;
7821;SDS011;3956;50.558;9.678;2022-12-26T00:52:13;4.27;;;3.33;;
7821;SDS011;3956;50.558;9.678;2022-12-26T00:54:42;5.00;;;3.47;;
7821;SDS011;3956;50.558;9.678;2022-12-26T00:57:10;6.40;;;3.63;;
7821;SDS011;3956;50.558;9.678;2022-12-26T00:59:40;6.60;;;3.97;;
7821;SDS011;3956;50.558;9.678;2022-12-26T01:02:09;4.50;;;3.50;;
7821;SDS011;3956;50.558;9.678;2022-12-26T01:04:51;6.27;;;3.67;;
7821;SDS011;3956;50.558;9.678;2022-12-26T01:07:20;9.10;;;3.50;;
7821;SDS011;3956;50.558;9.678;2022-12-26T01:09:49;5.07;;;3.50;;
7821;SDS011;3956;50.558;9.678;2022-12-26T01:12:18;6.57;;;3.27;;
7821;SDS011;3956;50.558;9.678;2022-12-26T01:14:48;4.40;;;3.60;;
7821;SDS011;3956;50.558;9.678;2022-12-26T01:17:16;5.57;;;3.77;;
7821;SDS011;3956;50.558;9.678;2022-12-26T01:19:45;3.93;;;3.43;;
7821;SDS011;3956;50.558;9.678;2022-12-26T01:22:14;4.23;;;3.53;;
7821;SDS011;3956;50.558;9.678;2022-12-26T01:24:43;6.23;;;3.70;;
7821;SDS011;3956;50.558;9.678;2022-12-26T01:27:13;5.17;;;3.50;;
7821;SDS011;3956;50.558;9.678;2022-12-26T01:29:43;4.93;;;3.63;;
7821;SDS011;3956;50.558;9.678;2022-12-26T01:32:13;6.17;;;3.90;;
7821;SDS011;3956;50.558;9.678;2022-12-26T01:34:41;5.03;;;3.80;;
7821;SDS011;3956;50.558;9.678;2022-12-26T01:37:11;3.73;;;3.40;;
7821;SDS011;3956;50.558;9.678;2022-12-26T01:39:40;4.77;;;3.40;;
7821;SDS011;3956;50.558;9.678;2022-12-26T01:42:10;5.67;;;3.50;;
7821;SDS011;3956;50.558;9.678;2022-12-26T01:44:54;4.23;;;3.47;;
7821;SDS011;3956;50.558;9.678;2022-12-26T01:47:33;3.87;;;3.30;;
7821;SDS011;3956;50.558;9.678;2022-12-26T01:50:12;4.70;;;3.27;;
7821;SDS011;3956;50.558;9.678;2022-12-26T01:52:47;11.23;;;6.20;;
7821;SDS011;3956;50.558;9.678;2022-12-26T01:55:16;8.90;;;4.50;;
7821;SDS011;3956;50.558;9.678;2022-12-26T01:57:49;6.03;;;3.23;;
7821;SDS011;3956;50.558;9.678;2022-12-26T02:03:07;4.87;;;3.53;;
7821;SDS011;3956;50.558;9.678;2022-12-26T02:05:54;5.67;;;3.50;;
7821;SDS011;3956;50.558;9.678;2022-12-26T02:08:26;5.67;;;3.13;;
7821;SDS011;3956;50.558;9.678;2022-12-26T02:10:59;4.30;;;3.00;;
7821;SDS011;3956;50.558;9.678;2022-12-26T02:13:33;4.80;;;3.00;;
7821;SDS011;3956;50.558;9.678;2022-12-26T02:16:03;5.00;;;3.30;;
7821;SDS011;3956;50.558;9.678;2022-12-26T02:18:34;5.27;;;3.30;;
7821;SDS011;3956;50.558;9.678;2022-12-26T02:21:06;4.57;;;3.20;;
7821;SDS011;3956;50.558;9.678;2022-12-26T02:23:59;4.37;;;3.03;;
7821;SDS011;3956;50.558;9.678;2022-12-26T02:30:10;5.70;;;3.63;;
7821;SDS011;3956;50.558;9.678;2022-12-26T02:33:01;4.50;;;3.07;;
7821;SDS011;3956;50.558;9.678;2022-12-26T02:35:53;4.43;;;2.90;;
7821;SDS011;3956;50.558;9.678;2022-12-26T02:38:42;4.83;;;3.23;;
7821;SDS011;3956;50.558;9.678;2022-12-26T02:41:22;4.97;;;3.27;;
7821;SDS011;3956;50.558;9.678;2022-12-26T02:43:59;5.57;;;2.80;;
7821;SDS011;3956;50.558;9.678;2022-12-26T02:46:58;6.73;;;3.37;;
7821;SDS011;3956;50.558;9.678;2022-12-26T02:49:39;6.10;;;3.00;;
7821;SDS011;3956;50.558;9.678;2022-12-26T02:52:43;5.07;;;3.03;;
7821;SDS011;3956;50.558;9.678;2022-12-26T02:55:47;4.37;;;2.67;;
7821;SDS011;3956;50.558;9.678;2022-12-26T02:58:41;4.93;;;3.10;;
7821;SDS011;3956;50.558;9.678;2022-12-26T03:01:33;5.03;;;3.13;;
7821;SDS011;3956;50.558;9.678;2022-12-26T03:04:25;5.03;;;2.93;;
7821;SDS011;3956;50.558;9.678;2022-12-26T03:07:19;4.67;;;2.90;;
7821;SDS011;3956;50.558;9.678;2022-12-26T03:10:14;3.30;;;3.00;;
7821;SDS011;3956;50.558;9.678;2022-12-26T03:13:04;5.33;;;2.83;;
7821;SDS011;3956;50.558;9.678;2022-12-26T03:15:41;5.80;;;2.90;;
7821;SDS011;3956;50.558;9.678;2022-12-26T03:18:32;4.87;;;3.00;;
7821;SDS011;3956;50.558;9.678;2022-12-26T03:21:24;7.87;;;3.20;;
7821;SDS011;3956;50.558;9.678;2022-12-26T03:23:55;3.73;;;2.80;;
7821;SDS011;3956;50.558;9.678;2022-12-26T03:26:24;3.50;;;2.70;;
7821;SDS011;3956;50.558;9.678;2022-12-26T03:29:06;5.80;;;3.10;;
7821;SDS011;3956;50.558;9.678;2022-12-26T03:32:09;3.43;;;2.50;;
7821;SDS011;3956;50.558;9.678;2022-12-26T03:34:39;3.13;;;2.40;;
7821;SDS011;3956;50.558;9.678;2022-12-26T03:37:20;7.63;;;2.87;;
7821;SDS011;3956;50.558;9.678;2022-12-26T03:40:29;4.63;;;2.90;;
7821;SDS011;3956;50.558;9.678;2022-12-26T03:43:39;6.63;;;3.10;;
7821;SDS011;3956;50.558;9.678;2022-12-26T03:46:38;4.10;;;2.93;;
7821;SDS011;3956;50.558;9.678;2022-12-26T03:49:35;6.93;;;3.00;;
7821;SDS011;3956;50.558;9.678;2022-12-26T03:52:30;4.57;;;3.00;;
7821;SDS011;3956;50.558;9.678;2022-12-26T03:55:23;4.80;;;2.83;;
7821;SDS011;3956;50.558;9.678;2022-12-26T03:58:14;5.00;;;2.93;;
7821;SDS011;3956;50.558;9.678;2022-12-26T04:01:09;6.40;;;3.03;;
7821;SDS011;3956;50.558;9.678;2022-12-26T04:03:57;5.73;;;2.80;;
7821;SDS011;3956;50.558;9.678;2022-12-26T04:06:48;4.80;;;3.10;;
7821;SDS011;3956;50.558;9.678;2022-12-26T04:09:38;6.53;;;2.80;;
7821;SDS011;3956;50.558;9.678;2022-12-26T04:12:29;6.00;;;3.10;;
7821;SDS011;3956;50.558;9.678;2022-12-26T04:15:19;3.77;;;2.67;;
7821;SDS011;3956;50.558;9.678;2022-12-26T04:18:09;4.80;;;2.87;;
7821;SDS011;3956;50.558;9.678;2022-12-26T04:21:05;5.37;;;2.93;;
7821;SDS011;3956;50.558;9.678;2022-12-26T04:23:59;3.97;;;2.80;;
7821;SDS011;3956;50.558;9.678;2022-12-26T04:26:51;5.03;;;2.93;;
7821;SDS011;3956;50.558;9.678;2022-12-26T04:29:40;5.43;;;2.63;;
7821;SDS011;3956;50.558;9.678;2022-12-26T04:32:28;4.03;;;2.93;;
7821;SDS011;3956;50.558;9.678;2022-12-26T04:35:20;5.37;;;2.83;;
7821;SDS011;3956;50.558;9.678;2022-12-26T04:38:12;6.03;;;2.90;;
7821;SDS011;3956;50.558;9.678;2022-12-26T04:41:03;5.77;;;2.90;;
7821;SDS011;3956;50.558;9.678;2022-12-26T04:43:53;4.20;;;3.00;;
7821;SDS011;3956;50.558;9.678;2022-12-26T04:46:36;5.93;;;3.50;;
7821;SDS011;3956;50.558;9.678;2022-12-26T04:49:08;6.47;;;2.93;;
7821;SDS011;3956;50.558;9.678;2022-12-26T04:51:55;8.10;;;3.00;;
7821;SDS011;3956;50.558;9.678;2022-12-26T04:54:24;5.67;;;3.30;;
7821;SDS011;3956;50.558;9.678;2022-12-26T04:56:54;6.10;;;3.30;;
7821;SDS011;3956;50.558;9.678;2022-12-26T04:59:24;5.57;;;2.67;;
7821;SDS011;3956;50.558;9.678;2022-12-26T05:01:52;6.47;;;3.07;;
7821;SDS011;3956;50.558;9.678;2022-12-26T05:04:39;4.07;;;2.70;;
7821;SDS011;3956;50.558;9.678;2022-12-26T05:07:26;5.07;;;3.27;;
7821;SDS011;3956;50.558;9.678;2022-12-26T05:10:16;4.10;;;2.90;;
7821;SDS011;3956;50.558;9.678;2022-12-26T05:12:46;5.37;;;3.13;;
7821;SDS011;3956;50.558;9.678;2022-12-26T05:15:15;6.57;;;2.93;;
7821;SDS011;3956;50.558;9.678;2022-12-26T05:17:44;6.47;;;3.03;;
7821;SDS011;3956;50.558;9.678;2022-12-26T05:20:30;4.93;;;3.10;;
7821;SDS011;3956;50.558;9.678;2022-12-26T05:23:17;4.67;;;3.53;;
7821;SDS011;3956;50.558;9.678;2022-12-26T05:26:07;4.67;;;2.80;;
7821;SDS011;3956;50.558;9.678;2022-12-26T05:28:59;6.17;;;3.03;;
7821;SDS011;3956;50.558;9.678;2022-12-26T05:31:30;5.83;;;3.20;;
7821;SDS011;3956;50.558;9.678;2022-12-26T05:34:02;4.20;;;2.73;;
7821;SDS011;3956;50.558;9.678;2022-12-26T05:36:33;4.50;;;2.80;;
7821;SDS011;3956;50.558;9.678;2022-12-26T05:39:05;4.60;;;2.67;;
7821;SDS011;3956;50.558;9.678;2022-12-26T05:41:34;5.70;;;2.93;;
7821;SDS011;3956;50.558;9.678;2022-12-26T05:44:03;5.60;;;3.10;;
7821;SDS011;3956;50.558;9.678;2022-12-26T05:46:33;3.47;;;2.97;;
7821;SDS011;3956;50.558;9.678;2022-12-26T05:49:03;5.73;;;2.90;;
7821;SDS011;3956;50.558;9.678;2022-12-26T05:51:32;3.30;;;2.70;;
7821;SDS011;3956;50.558;9.678;2022-12-26T05:54:01;4.33;;;2.77;;
7821;SDS011;3956;50.558;9.678;2022-12-26T05:56:29;4.47;;;2.90;;
7821;SDS011;3956;50.558;9.678;2022-12-26T05:58:58;4.80;;;2.87;;
7821;SDS011;3956;50.558;9.678;2022-12-26T06:01:28;4.47;;;2.90;;
7821;SDS011;3956;50.558;9.678;2022-12-26T06:03:58;5.37;;;2.77;;
7821;SDS011;3956;50.558;9.678;2022-12-26T06:06:27;4.13;;;3.20;;
7821;SDS011;3956;50.558;9.678;2022-12-26T06:08:56;3.83;;;2.70;;
7821;SDS011;3956;50.558;9.678;2022-12-26T06:11:24;7.00;;;3.00;;
7821;SDS011;3956;50.558;9.678;2022-12-26T06:13:53;7.47;;;2.90;;
7821;SDS011;3956;50.558;9.678;2022-12-26T06:16:22;5.73;;;2.63;;
7821;SDS011;3956;50.558;9.678;2022-12-26T06:18:50;6.47;;;3.00;;
7821;SDS011;3956;50.558;9.678;2022-12-26T06:21:22;4.50;;;2.90;;
7821;SDS011;3956;50.558;9.678;2022-12-26T06:23:52;4.87;;;2.70;;
7821;SDS011;3956;50.558;9.678;2022-12-26T06:26:21;4.20;;;2.57;;
7821;SDS011;3956;50.558;9.678;2022-12-26T06:28:50;5.67;;;2.77;;
7821;SDS011;3956;50.558;9.678;2022-12-26T06:31:19;5.27;;;3.00;;
7821;SDS011;3956;50.558;9.678;2022-12-26T06:33:49;4.83;;;2.80;;
7821;SDS011;3956;50.558;9.678;2022-12-26T06:36:23;4.57;;;2.87;;
7821;SDS011;3956;50.558;9.678;2022-12-26T06:38:52;5.30;;;2.57;;
7821;SDS011;3956;50.558;9.678;2022-12-26T06:41:22;7.53;;;2.90;;
7821;SDS011;3956;50.558;9.678;2022-12-26T06:43:53;8.53;;;2.90;;
7821;SDS011;3956;50.558;9.678;2022-12-26T06:46:22;5.73;;;2.70;;
7821;SDS011;3956;50.558;9.678;2022-12-26T06:48:52;6.23;;;2.77;;
7821;SDS011;3956;50.558;9.678;2022-12-26T06:51:21;4.90;;;2.93;;
7821;SDS011;3956;50.558;9.678;2022-12-26T06:53:53;4.17;;;2.70;;
7821;SDS011;3956;50.558;9.678;2022-12-26T06:56:22;2.90;;;2.40;;
7821;SDS011;3956;50.558;9.678;2022-12-26T06:58:53;4.50;;;2.90;;
7821;SDS011;3956;50.558;9.678;2022-12-26T07:01:22;4.77;;;2.70;;
7821;SDS011;3956;50.558;9.678;2022-12-26T07:03:52;5.53;;;2.70;;
7821;SDS011;3956;50.558;9.678;2022-12-26T07:06:21;5.63;;;3.10;;
7821;SDS011;3956;50.558;9.678;2022-12-26T07:08:53;4.70;;;2.60;;
7821;SDS011;3956;50.558;9.678;2022-12-26T07:11:24;5.50;;;2.87;;
7821;SDS011;3956;50.558;9.678;2022-12-26T07:13:55;4.00;;;2.60;;
7821;SDS011;3956;50.558;9.678;2022-12-26T07:16:24;5.47;;;2.87;;
7821;SDS011;3956;50.558;9.678;2022-12-26T07:18:53;4.80;;;3.00;;
7821;SDS011;3956;50.558;9.678;2022-12-26T07:21:23;6.37;;;3.20;;
7821;SDS011;3956;50.558;9.678;2022-12-26T07:23:53;5.47;;;2.50;;
7821;SDS011;3956;50.558;9.678;2022-12-26T07:26:21;7.00;;;2.97;;
7821;SDS011;3956;50.558;9.678;2022-12-26T07:28:51;6.70;;;2.60;;
7821;SDS011;3956;50.558;9.678;2022-12-26T07:31:21;4.30;;;2.70;;
7821;SDS011;3956;50.558;9.678;2022-12-26T07:33:51;6.17;;;2.83;;
7821;SDS011;3956;50.558;9.678;2022-12-26T07:36:23;6.43;;;3.40;;
7821;SDS011;3956;50.558;9.678;2022-12-26T07:38:53;4.07;;;2.70;;
7821;SDS011;3956;50.558;9.678;2022-12-26T07:41:22;4.37;;;2.70;;
7821;SDS011;3956;50.558;9.678;2022-12-26T07:44:08;6.13;;;3.00;;
7821;SDS011;3956;50.558;9.678;2022-12-26T07:46:36;4.20;;;2.60;;
7821;SDS011;3956;50.558;9.678;2022-12-26T07:49:05;4.50;;;2.97;;
7821;SDS011;3956;50.558;9.678;2022-12-26T07:51:35;9.23;;;3.00;;
7821;SDS011;3956;50.558;9.678;2022-12-26T07:54:04;3.87;;;2.63;;
7821;SDS011;3956;50.558;9.678;2022-12-26T07:56:37;5.67;;;3.10;;
7821;SDS011;3956;50.558;9.678;2022-12-26T07:59:05;7.07;;;2.93;;
7821;SDS011;3956;50.558;9.678;2022-12-26T08:01:34;5.10;;;3.10;;
7821;SDS011;3956;50.558;9.678;2022-12-26T08:04:02;6.17;;;3.10;;
7821;SDS011;3956;50.558;9.678;2022-12-26T08:06:31;6.93;;;3.27;;
7821;SDS011;3956;50.558;9.678;2022-12-26T08:09:01;6.97;;;3.90;;
7821;SDS011;3956;50.558;9.678;2022-12-26T08:11:31;3.43;;;3.10;;
7821;SDS011;3956;50.558;9.678;2022-12-26T08:14:01;5.80;;;3.30;;
7821;SDS011;3956;50.558;9.678;2022-12-26T08:16:30;4.83;;;3.40;;
7821;SDS011;3956;50.558;9.678;2022-12-26T08:18:59;7.43;;;3.70;;
7821;SDS011;3956;50.558;9.678;2022-12-26T08:21:32;4.83;;;3.47;;
7821;SDS011;3956;50.558;9.678;2022-12-26T08:24:02;5.90;;;3.60;;
7821;SDS011;3956;50.558;9.678;2022-12-26T08:26:31;5.90;;;3.30;;
7821;SDS011;3956;50.558;9.678;2022-12-26T08:29:00;5.83;;;3.40;;
7821;SDS011;3956;50.558;9.678;2022-12-26T08:31:30;7.20;;;3.53;;
7821;SDS011;3956;50.558;9.678;2022-12-26T08:33:59;6.00;;;3.43;;
7821;SDS011;3956;50.558;9.678;2022-12-26T08:36:27;5.93;;;3.50;;
7821;SDS011;3956;50.558;9.678;2022-12-26T08:38:56;5.27;;;3.67;;
7821;SDS011;3956;50.558;9.678;2022-12-26T08:41:27;6.10;;;3.27;;
7821;SDS011;3956;50.558;9.678;2022-12-26T08:43:55;4.17;;;3.20;;
7821;SDS011;3956;50.558;9.678;2022-12-26T08:46:43;7.67;;;3.63;;
7821;SDS011;3956;50.558;9.678;2022-12-26T08:49:14;5.53;;;3.67;;
7821;SDS011;3956;50.558;9.678;2022-12-26T08:51:53;5.07;;;2.97;;
7821;SDS011;3956;50.558;9.678;2022-12-26T08:54:24;5.27;;;3.00;;
7821;SDS011;3956;50.558;9.678;2022-12-26T08:56:54;5.07;;;3.30;;
7821;SDS011;3956;50.558;9.678;2022-12-26T08:59:22;6.33;;;2.90;;
7821;SDS011;3956;50.558;9.678;2022-12-26T09:01:51;3.63;;;3.07;;
7821;SDS011;3956;50.558;9.678;2022-12-26T09:04:19;5.77;;;2.87;;
7821;SDS011;3956;50.558;9.678;2022-12-26T09:06:47;6.47;;;2.80;;
7821;SDS011;3956;50.558;9.678;2022-12-26T09:09:16;3.90;;;2.90;;
7821;SDS011;3956;50.558;9.678;2022-12-26T09:11:45;7.47;;;2.90;;
7821;SDS011;3956;50.558;9.678;2022-12-26T09:14:15;5.37;;;2.60;;
7821;SDS011;3956;50.558;9.678;2022-12-26T09:16:43;3.40;;;2.73;;
7821;SDS011;3956;50.558;9.678;2022-12-26T09:19:16;3.43;;;2.90;;
7821;SDS011;3956;50.558;9.678;2022-12-26T09:21:46;4.43;;;2.80;;
7821;SDS011;3956;50.558;9.678;2022-12-26T09:24:35;4.17;;;3.27;;
7821;SDS011;3956;50.558;9.678;2022-12-26T09:27:04;5.17;;;3.00;;
7821;SDS011;3956;50.558;9.678;2022-12-26T09:29:34;5.50;;;2.80;;
7821;SDS011;3956;50.558;9.678;2022-12-26T09:32:04;4.07;;;2.97;;
7821;SDS011;3956;50.558;9.678;2022-12-26T09:34:42;4.93;;;2.90;;
7821;SDS011;3956;50.558;9.678;2022-12-26T09:37:27;3.50;;;2.97;;
7821;SDS011;3956;50.558;9.678;2022-12-26T09:39:56;6.30;;;2.97;;
7821;SDS011;3956;50.558;9.678;2022-12-26T09:42:26;4.27;;;2.73;;
7821;SDS011;3956;50.558;9.678;2022-12-26T09:45:04;4.07;;;2.90;;
7821;SDS011;3956;50.558;9.678;2022-12-26T09:47:40;4.63;;;2.50;;
7821;SDS011;3956;50.558;9.678;2022-12-26T09:50:19;5.43;;;2.43;;
7821;SDS011;3956;50.558;9.678;2022-12-26T09:52:53;3.10;;;2.30;;
7821;SDS011;3956;50.558;9.678;2022-12-26T09:55:26;4.83;;;2.43;;
7821;SDS011;3956;50.558;9.678;2022-12-26T09:58:03;4.97;;;2.53;;
7821;SDS011;3956;50.558;9.678;2022-12-26T10:00:44;4.30;;;2.43;;
7821;SDS011;3956;50.558;9.678;2022-12-26T10:03:18;2.93;;;2.10;;
7821;SDS011;3956;50.558;9.678;2022-12-26T10:05:54;3.13;;;2.10;;
7821;SDS011;3956;50.558;9.678;2022-12-26T10:08:33;4.10;;;2.50;;
7821;SDS011;3956;50.558;9.678;2022-12-26T10:11:10;5.07;;;2.20;;
7821;SDS011;3956;50.558;9.678;2022-12-26T10:13:45;4.90;;;2.37;;
7821;SDS011;3956;50.558;9.678;2022-12-26T10:16:20;4.00;;;2.00;;
7821;SDS011;3956;50.558;9.678;2022-12-26T10:18:55;4.40;;;2.20;;
7821;SDS011;3956;50.558;9.678;2022-12-26T10:21:37;3.87;;;2.50;;
7821;SDS011;3956;50.558;9.678;2022-12-26T10:24:13;3.23;;;2.27;;
7821;SDS011;3956;50.558;9.678;2022-12-26T10:26:44;3.97;;;2.50;;
7821;SDS011;3956;50.558;9.678;2022-12-26T10:29:18;3.00;;;2.00;;
7821;SDS011;3956;50.558;9.678;2022-12-26T10:32:01;3.87;;;2.60;;
7821;SDS011;3956;50.558;9.678;2022-12-26T10:34:38;3.43;;;2.40;;
7821;SDS011;3956;50.558;9.678;2022-12-26T10:37:10;2.50;;;2.30;;
7821;SDS011;3956;50.558;9.678;2022-12-26T10:39:44;3.43;;;2.33;;
7821;SDS011;3956;50.558;9.678;2022-12-26T10:42:20;3.53;;;2.30;;
7821;SDS011;3956;50.558;9.678;2022-12-26T10:44:53;2.90;;;2.30;;
7821;SDS011;3956;50.558;9.678;2022-12-26T10:47:31;2.80;;;2.40;;
7821;SDS011;3956;50.558;9.678;2022-12-26T10:50:09;5.03;;;2.27;;
7821;SDS011;3956;50.558;9.678;2022-12-26T10:52:50;4.30;;;2.40;;
7821;SDS011;3956;50.558;9.678;2022-12-26T10:55:25;2.63;;;2.23;;
7821;SDS011;3956;50.558;9.678;2022-12-26T10:58:02;3.80;;;2.40;;
7821;SDS011;3956;50.558;9.678;2022-12-26T11:00:34;2.63;;;2.37;;
7821;SDS011;3956;50.558;9.678;2022-12-26T11:03:05;3.97;;;2.50;;
7821;SDS011;3956;50.558;9.678;2022-12-26T11:05:41;4.00;;;2.30;;
7821;SDS011;3956;50.558;9.678;2022-12-26T11:08:38;3.67;;;2.00;;
7821;SDS011;3956;50.558;9.678;2022-12-26T11:11:18;3.53;;;2.30;;
7821;SDS011;3956;50.558;9.678;2022-12-26T11:13:51;5.73;;;2.40;;
7821;SDS011;3956;50.558;9.678;2022-12-26T11:16:28;4.87;;;2.20;;
7821;SDS011;3956;50.558;9.678;2022-12-26T11:19:00;4.23;;;2.20;;
7821;SDS011;3956;50.558;9.678;2022-12-26T11:21:31;3.53;;;2.23;;
7821;SDS011;3956;50.558;9.678;2022-12-26T11:24:16;3.67;;;2.10;;
7821;SDS011;3956;50.558;9.678;2022-12-26T11:26:56;4.03;;;2.60;;
7821;SDS011;3956;50.558;9.678;2022-12-26T11:29:50;5.47;;;2.57;;
7821;SDS011;3956;50.558;9.678;2022-12-26T11:33:03;3.60;;;2.17;;
7821;SDS011;3956;50.558;9.678;2022-12-26T11:36:18;4.47;;;2.20;;
7821;SDS011;3956;50.558;9.678;2022-12-26T11:38:54;2.63;;;2.30;;
7821;SDS011;3956;50.558;9.678;2022-12-26T11:41:31;3.67;;;2.17;;
7821;SDS011;3956;50.558;9.678;2022-12-26T11:44:12;3.13;;;2.40;;
7821;SDS011;3956;50.558;9.678;2022-12-26T11:46:50;3.67;;;2.20;;
7821;SDS011;3956;50.558;9.678;2022-12-26T11:49:32;4.33;;;2.00;;
7821;SDS011;3956;50.558;9.678;2022-12-26T11:55:28;4.27;;;2.27;;
7821;SDS011;3956;50.558;9.678;2022-12-26T11:58:13;2.97;;;2.00;;
7821;SDS011;3956;50.558;9.678;2022-12-26T12:03:40;3.70;;;1.97;;
7821;SDS011;3956;50.558;9.678;2022-12-26T12:06:18;2.93;;;2.00;;
7821;SDS011;3956;50.558;9.678;2022-12-26T12:09:03;3.73;;;2.10;;
7821;SDS011;3956;50.558;9.678;2022-12-26T12:11:40;4.30;;;2.00;;
7821;SDS011;3956;50.558;9.678;2022-12-26T12:14:21;2.27;;;1.83;;
7821;SDS011;3956;50.558;9.678;2022-12-26T12:17:00;3.37;;;2.10;;
7821;SDS011;3956;50.558;9.678;2022-12-26T12:19:52;4.20;;;1.70;;
7821;SDS011;3956;50.558;9.678;2022-12-26T12:25:33;2.87;;;2.13;;
7821;SDS011;3956;50.558;9.678;2022-12-26T12:28:32;2.60;;;1.90;;
7821;SDS011;3956;50.558;9.678;2022-12-26T12:31:17;3.53;;;1.90;;
7821;SDS011;3956;50.558;9.678;2022-12-26T12:33:54;4.27;;;2.23;;
7821;SDS011;3956;50.558;9.678;2022-12-26T12:36:35;5.40;;;2.30;;
7821;SDS011;3956;50.558;9.678;2022-12-26T12:39:08;4.07;;;2.00;;
7821;SDS011;3956;50.558;9.678;2022-12-26T12:41:50;3.63;;;1.60;;
7821;SDS011;3956;50.558;9.678;2022-12-26T12:44:38;9.03;;;4.23;;
7821;SDS011;3956;50.558;9.678;2022-12-26T12:47:27;4.40;;;2.53;;
7821;SDS011;3956;50.558;9.678;2022-12-26T12:50:07;3.10;;;1.70;;
7821;SDS011;3956;50.558;9.678;2022-12-26T12:52:46;5.07;;;1.80;;
7821;SDS011;3956;50.558;9.678;2022-12-26T12:55:24;2.60;;;1.70;;
7821;SDS011;3956;50.558;9.678;2022-12-26T12:58:10;3.43;;;1.73;;
7821;SDS011;3956;50.558;9.678;2022-12-26T13:00:44;3.13;;;2.10;;
7821;SDS011;3956;50.558;9.678;2022-12-26T13:03:27;2.57;;;1.90;;
7821;SDS011;3956;50.558;9.678;2022-12-26T13:06:09;3.13;;;1.77;;
7821;SDS011;3956;50.558;9.678;2022-12-26T13:08:47;2.10;;;1.43;;
7821;SDS011;3956;50.558;9.678;2022-12-26T13:11:21;3.10;;;1.80;;
7821;SDS011;3956;50.558;9.678;2022-12-26T13:13:59;2.37;;;1.77;;
7821;SDS011;3956;50.558;9.678;2022-12-26T13:16:37;1.70;;;1.50;;
7821;SDS011;3956;50.558;9.678;2022-12-26T13:19:11;2.30;;;1.70;;
7821;SDS011;3956;50.558;9.678;2022-12-26T13:21:45;3.17;;;2.00;;
7821;SDS011;3956;50.558;9.678;2022-12-26T13:24:23;1.90;;;1.50;;
7821;SDS011;3956;50.558;9.678;2022-12-26T13:26:56;3.00;;;1.70;;
7821;SDS011;3956;50.558;9.678;2022-12-26T13:29:33;2.87;;;1.60;;
7821;SDS011;3956;50.558;9.678;2022-12-26T13:32:11;3.10;;;1.70;;
7821;SDS011;3956;50.558;9.678;2022-12-26T13:34:43;4.77;;;2.10;;
7821;SDS011;3956;50.558;9.678;2022-12-26T13:40:17;2.50;;;1.50;;
7821;SDS011;3956;50.558;9.678;2022-12-26T13:42:49;1.80;;;1.40;;
7821;SDS011;3956;50.558;9.678;2022-12-26T13:45:49;2.27;;;1.50;;
7821;SDS011;3956;50.558;9.678;2022-12-26T13:51:52;2.87;;;1.63;;
7821;SDS011;3956;50.558;9.678;2022-12-26T13:54:24;3.30;;;1.60;;
7821;SDS011;3956;50.558;9.678;2022-12-26T14:06:06;2.80;;;1.20;;
7821;SDS011;3956;50.558;9.678;2022-12-26T14:09:18;1.67;;;1.20;;
7821;SDS011;3956;50.558;9.678;2022-12-26T14:12:18;2.53;;;1.60;;
7821;SDS011;3956;50.558;9.678;2022-12-26T14:15:19;2.10;;;1.43;;
7821;SDS011;3956;50.558;9.678;2022-12-26T14:17:59;2.73;;;1.60;;
7821;SDS011;3956;50.558;9.678;2022-12-26T14:20:43;2.50;;;1.60;;
7821;SDS011;3956;50.558;9.678;2022-12-26T14:23:27;2.80;;;1.50;;
7821;SDS011;3956;50.558;9.678;2022-12-26T14:26:14;3.00;;;1.50;;
7821;SDS011;3956;50.558;9.678;2022-12-26T14:28:59;1.50;;;1.40;;
7821;SDS011;3956;50.558;9.678;2022-12-26T14:31:37;2.00;;;1.50;;
7821;SDS011;3956;50.558;9.678;2022-12-26T14:34:15;3.40;;;1.40;;
7821;SDS011;3956;50.558;9.678;2022-12-26T14:36:58;2.53;;;1.53;;
7821;SDS011;3956;50.558;9.678;2022-12-26T14:39:41;2.37;;;1.60;;
7821;SDS011;3956;50.558;9.678;2022-12-26T14:42:21;3.07;;;1.53;;
7821;SDS011;3956;50.558;9.678;2022-12-26T14:45:13;2.77;;;1.50;;
7821;SDS011;3956;50.558;9.678;2022-12-26T14:51:35;1.87;;;1.37;;
7821;SDS011;3956;50.558;9.678;2022-12-26T15:00:27;3.07;;;2.20;;
7821;SDS011;3956;50.558;9.678;2022-12-26T15:06:12;2.80;;;1.90;;
7821;SDS011;3956;50.558;9.678;2022-12-26T15:09:07;3.10;;;2.00;;
7821;SDS011;3956;50.558;9.678;2022-12-26T15:12:09;3.07;;;2.00;;
7821;SDS011;3956;50.558;9.678;2022-12-26T15:21:25;3.00;;;1.53;;
7821;SDS011;3956;50.558;9.678;2022-12-26T15:24:23;2.87;;;1.40;;
7821;SDS011;3956;50.558;9.678;2022-12-26T15:27:37;2.90;;;1.60;;
7821;SDS011;3956;50.558;9.678;2022-12-26T15:30:46;4.27;;;1.60;;
7821;SDS011;3956;50.558;9.678;2022-12-26T15:33:30;2.30;;;1.27;;
7821;SDS011;3956;50.558;9.678;2022-12-26T15:36:13;2.37;;;1.30;;
7821;SDS011;3956;50.558;9.678;2022-12-26T15:38:51;2.37;;;1.43;;
7821;SDS011;3956;50.558;9.678;2022-12-26T15:41:29;1.87;;;1.30;;
7821;SDS011;3956;50.558;9.678;2022-12-26T15:44:17;2.00;;;1.30;;
7821;SDS011;3956;50.558;9.678;2022-12-26T15:47:02;1.77;;;1.40;;
7821;SDS011;3956;50.558;9.678;2022-12-26T15:49:54;3.10;;;1.40;;
7821;SDS011;3956;50.558;9.678;2022-12-26T15:52:40;5.20;;;1.40;;
7821;SDS011;3956;50.558;9.678;2022-12-26T15:55:28;3.30;;;1.90;;
7821;SDS011;3956;50.558;9.678;2022-12-26T15:58:17;3.57;;;2.23;;
7821;SDS011;3956;50.558;9.678;2022-12-26T16:01:12;2.87;;;1.50;;
7821;SDS011;3956;50.558;9.678;2022-12-26T16:04:05;2.60;;;1.40;;
7821;SDS011;3956;50.558;9.678;2022-12-26T16:07:02;1.70;;;1.10;;
7821;SDS011;3956;50.558;9.678;2022-12-26T16:09:55;3.37;;;1.53;;
7821;SDS011;3956;50.558;9.678;2022-12-26T16:12:25;2.30;;;1.30;;
7821;SDS011;3956;50.558;9.678;2022-12-26T16:15:00;1.40;;;1.10;;
7821;SDS011;3956;50.558;9.678;2022-12-26T16:17:42;2.83;;;1.40;;
7821;SDS011;3956;50.558;9.678;2022-12-26T16:20:17;1.50;;;1.40;;
7821;SDS011;3956;50.558;9.678;2022-12-26T16:23:17;2.57;;;1.30;;
7821;SDS011;3956;50.558;9.678;2022-12-26T16:25:48;4.53;;;1.33;;
7821;SDS011;3956;50.558;9.678;2022-12-26T16:28:20;2.73;;;1.33;;
7821;SDS011;3956;50.558;9.678;2022-12-26T16:30:57;2.50;;;1.50;;
7821;SDS011;3956;50.558;9.678;2022-12-26T16:33:29;1.53;;;1.13;;
7821;SDS011;3956;50.558;9.678;2022-12-26T16:36:05;2.60;;;1.40;;
7821;SDS011;3956;50.558;9.678;2022-12-26T16:38:40;2.90;;;1.40;;
7821;SDS011;3956;50.558;9.678;2022-12-26T16:41:17;2.17;;;1.20;;
7821;SDS011;3956;50.558;9.678;2022-12-26T16:43:47;3.67;;;2.40;;
7821;SDS011;3956;50.558;9.678;2022-12-26T16:46:20;3.03;;;2.00;;
7821;SDS011;3956;50.558;9.678;2022-12-26T16:48:54;3.83;;;2.33;;
7821;SDS011;3956;50.558;9.678;2022-12-26T16:51:34;4.57;;;1.80;;
7821;SDS011;3956;50.558;9.678;2022-12-26T16:54:14;3.10;;;1.70;;
7821;SDS011;3956;50.558;9.678;2022-12-26T16:57:00;2.60;;;1.50;;
7821;SDS011;3956;50.558;9.678;2022-12-26T16:59:39;3.00;;;1.50;;
7821;SDS011;3956;50.558;9.678;2022-12-26T17:02:20;2.40;;;1.40;;
7821;SDS011;3956;50.558;9.678;2022-12-26T17:04:59;3.83;;;1.73;;
7821;SDS011;3956;50.558;9.678;2022-12-26T17:07:38;3.00;;;1.23;;
7821;SDS011;3956;50.558;9.678;2022-12-26T17:10:16;2.83;;;1.20;;
7821;SDS011;3956;50.558;9.678;2022-12-26T17:12:49;2.57;;;1.87;;